Aviation Digital Data Service (ADDS)

Output produced by TAFs form (0404 UTC 21 September 2014)
found at http://aviationweather.gov/adds/tafs/
 
KEGE 202325Z 2100/2124 26005KT P6SM FEW120 SCT150 
     FM210200 09006KT P6SM FEW110 SCT200 
     FM210600 VRB03KT P6SM SCT100 BKN200 
     FM211200 VRB03KT P6SM VCSH SCT060 BKN080 
     FM211900 26005KT P6SM SCT070 BKN140 AMD LTD TO CLD VIS AND WIND 2101/2113